| time (UTC) | temp F | wind direction | speed knots | gust knots | rain 1hr in | rain 24hr in | rain mn in | humidity % | barometer mb |
| 20260502221436 | 54 | 46 | 0.0 | 0.0 | 0.06 | 0.13 | 0.13 | 93 | 1010.3 |
| 20260502220935 | 54 | 58 | 0.0 | 0.0 | 0.06 | 0.13 | 0.13 | 92 | 1010.3 |
| 20260502220433 | 54 | 40 | 0.0 | 0.0 | 0.06 | 0.13 | 0.13 | 92 | 1010.3 |
| 20260502220157 | 54 | 34 | 0.0 | 0.0 | 0.06 | 0.12 | 0.12 | 92 | 1010.3 |
| 20260502215435 | 54 | 63 | 0.0 | 0.0 | 0.06 | 0.12 | 0.12 | 92 | 1010.4 |
| 20260502214931 | 54 | 44 | 0.0 | 0.0 | 0.05 | 0.11 | 0.11 | 91 | 1010.4 |
| 20260502214431 | 55 | 56 | 0.0 | 0.0 | 0.05 | 0.10 | 0.10 | 91 | 1010.5 |
| 20260502213931 | 55 | 40 | 0.0 | 0.0 | 0.04 | 0.09 | 0.09 | 90 | 1010.6 |
| 20260502213429 | 55 | 46 | 0.0 | 0.0 | 0.03 | 0.09 | 0.09 | 90 | 1010.7 |
| 20260502212929 | 55 | 54 | 0.0 | 0.0 | 0.03 | 0.08 | 0.08 | 90 | 1010.8 |
| 20260502212429 | 55 | 58 | 0.0 | 0.0 | 0.03 | 0.08 | 0.08 | 90 | 1010.8 |
| 20260502211925 | 55 | 311 | 0.0 | 0.0 | 0.03 | 0.07 | 0.07 | 90 | 1010.9 |
| 20260502211421 | 55 | 304 | 0.0 | 0.0 | 0.03 | 0.07 | 0.07 | 89 | 1010.8 |
| 20260502210921 | 55 | 309 | 0.0 | 0.0 | 0.03 | 0.06 | 0.07 | 89 | 1010.8 |
| 20260502210419 | 55 | 297 | 0.0 | 0.0 | 0.04 | 0.06 | 0.06 | 88 | 1010.9 |
| 20260502205919 | 55 | 301 | 0.0 | 0.0 | 0.04 | 0.06 | 0.06 | 88 | 1010.9 |
| 20260502205419 | 56 | 301 | 0.0 | 0.0 | 0.05 | 0.06 | 0.06 | 87 | 1011.0 |
| 20260502204916 | 56 | 311 | 0.0 | 0.0 | 0.06 | 0.06 | 0.06 | 87 | 1010.9 |
| 20260502204415 | 56 | 311 | 0.0 | 0.0 | 0.05 | 0.06 | 0.06 | 86 | 1011.0 |
| 20260502203916 | 56 | 273 | 0.0 | 0.0 | 0.06 | 0.06 | 0.06 | 85 | 1011.0 |
| 20260502203413 | 56 | 228 | 0.0 | 0.0 | 0.06 | 0.06 | 0.06 | 85 | 1011.1 |
| 20260502202912 | 57 | 224 | 0.0 | 0.0 | 0.05 | 0.05 | 0.05 | 84 | 1011.1 |
| 20260502202412 | 57 | 224 | 0.0 | 0.0 | 0.05 | 0.05 | 0.05 | 83 | 1011.2 |
| 20260502201910 | 57 | 224 | 0.0 | 0.0 | 0.04 | 0.04 | 0.04 | 82 | 1011.2 |
| 20260502201409 | 57 | 224 | 0.0 | 0.0 | 0.04 | 0.04 | 0.04 | 81 | 1011.2 |
| 20260502200909 | 58 | 224 | 0.0 | 0.0 | 0.03 | 0.03 | 0.03 | 79 | 1011.3 |
| 20260502200411 | 58 | 193 | 0.0 | 0.0 | 0.02 | 0.02 | 0.03 | 78 | 1011.3 |
| 20260502195904 | 58 | 176 | 0.0 | 0.0 | 0.02 | 0.02 | 0.02 | 77 | 1011.4 |
| 20260502195400 | 59 | 185 | 0.0 | 0.0 | 0.02 | 0.02 | 0.02 | 76 | 1011.4 |
| 20260502194859 | 59 | 174 | 0.0 | 0.0 | 0.01 | 0.01 | 0.01 | 75 | 1011.4 |
| 20260502194400 | 59 | 183 | 0.0 | 0.0 | 0.01 | 0.01 | 0.01 | 73 | 1011.3 |
| 20260502193858 | 59 | 165 | 0.0 | 0.0 | 0.00 | 0.00 | 0.00 | 71 | 1011.3 |
| 20260502193358 | 59 | 181 | 0.0 | 0.0 | 0.00 | 0.00 | 0.00 | 70 | 1011.2 |
| 20260502192857 | 59 | 143 | 0.0 | 0.0 | 0.00 | 0.00 | 0.00 | 69 | 1011.2 |
| 20260502192400 | 60 | 144 | 0.0 | 0.0 | 0.00 | 0.00 | 0.00 | 68 | 1011.2 |
| 20260502191857 | 60 | 143 | 0.0 | 0.0 | 0.00 | 0.00 | 0.00 | 68 | 1011.2 |
| 20260502191358 | 60 | 141 | 0.0 | 0.0 | 0.00 | 0.00 | 0.00 | 65 | 1011.2 |
| 20260502191127 | 60 | 141 | 0.0 | 0.0 | 0.00 | 0.00 | 0.00 | 65 | 1011.1 |
| 20260502190355 | 60 | 141 | 0.0 | 0.0 | 0.00 | 0.00 | 0.00 | 64 | 1011.0 |
| 20260502185855 | 60 | 141 | 0.0 | 0.0 | 0.00 | 0.00 | 0.00 | 64 | 1011.0 |
| 20260502185354 | 60 | 141 | 0.0 | 0.0 | 0.00 | 0.00 | 0.00 | 65 | 1011.0 |
| 20260502184855 | 60 | 141 | 0.0 | 0.0 | 0.00 | 0.00 | 0.00 | 65 | 1011.0 |
| 20260502184355 | 60 | 141 | 0.0 | 0.0 | 0.00 | 0.00 | 0.00 | 65 | 1011.0 |
| 20260502183853 | 60 | 141 | 0.0 | 0.0 | 0.00 | 0.00 | 0.00 | 64 | 1011.0 |
| 20260502183354 | 60 | 151 | 0.0 | 0.0 | 0.00 | 0.00 | 0.00 | 65 | 1011.0 |
| 20260502182854 | 60 | 121 | 0.0 | 0.0 | 0.00 | 0.00 | 0.00 | 64 | 1011.1 |
| 20260502182352 | 61 | 152 | 0.0 | 0.0 | 0.00 | 0.00 | 0.00 | 64 | 1011.1 |
| 20260502182111 | 61 | 158 | 0.0 | 0.0 | 0.00 | 0.01 | 0.00 | 64 | 1011.1 |
| 20260502181353 | 61 | 67 | 0.0 | 0.0 | 0.00 | 0.01 | 0.00 | 64 | 1011.2 |
| 20260502180849 | 61 | 57 | 0.0 | 0.0 | 0.00 | 0.02 | 0.00 | 64 | 1011.2 |
| 20260502180349 | 61 | 153 | 0.0 | 0.0 | 0.00 | 0.02 | 0.00 | 63 | 1011.2 |
| 20260502170347 | 61 | 158 | 0.0 | 0.0 | 0.00 | 0.03 | 0.00 | 63 | 1011.5 |
| 20260502164341 | 62 | 165 | 0.0 | 0.0 | 0.00 | 0.06 | 0.00 | 63 | 1011.5 |
| 20260502164105 | 62 | 138 | 0.0 | 0.0 | 0.00 | 0.06 | 0.00 | 62 | 1011.5 |
| 20260502163342 | 62 | 118 | 0.0 | 0.0 | 0.00 | 0.06 | 0.00 | 62 | 1011.5 |
| 20260502162842 | 62 | 106 | 0.0 | 0.0 | 0.00 | 0.06 | 0.00 | 61 | 1011.6 |
| 20260502162340 | 62 | 122 | 0.0 | 0.0 | 0.00 | 0.06 | 0.00 | 61 | 1011.7 |
| 20260502161839 | 62 | 75 | 0.0 | 0.0 | 0.00 | 0.06 | 0.00 | 61 | 1011.8 |
| 20260502161337 | 62 | 92 | 0.0 | 0.0 | 0.00 | 0.06 | 0.00 | 60 | 1011.8 |
| 20260502161059 | 63 | 58 | 0.0 | 0.0 | 0.00 | 0.06 | 0.00 | 60 | 1011.9 |
| 20260502160337 | 63 | 109 | 0.0 | 0.0 | 0.00 | 0.06 | 0.00 | 60 | 1012.0 |
| 20260502151829 | 64 | 100 | 0.0 | 0.0 | 0.00 | 0.06 | 0.00 | 59 | 1012.4 |
| 20260502151331 | 64 | 148 | 0.0 | 0.0 | 0.00 | 0.06 | 0.00 | 58 | 1012.4 |
| 20260502150829 | 64 | 129 | 0.0 | 0.0 | 0.00 | 0.06 | 0.00 | 58 | 1012.5 |
| 20260502150555 | 64 | 113 | 0.0 | 0.0 | 0.00 | 0.06 | 0.00 | 58 | 1012.4 |
| 20260502140106 | 66 | 146 | 0.0 | 0.0 | 0.00 | 0.06 | 0.00 | 55 | 1013.6 |
| 20260502130321 | 62 | 60 | 0.0 | 0.0 | 0.00 | 0.06 | 0.00 | 66 | 1013.7 |
| 20260502123319 | 62 | 141 | 0.0 | 0.0 | 0.00 | 0.06 | 0.00 | 69 | 1014.3 |
| 20260502122818 | 61 | 165 | 0.0 | 0.0 | 0.00 | 0.06 | 0.00 | 69 | 1014.4 |
| 20260502122804 | 61 | 44 | 0.0 | 0.0 | 0.00 | 0.06 | 0.00 | 70 | 1014.4 |
| 20260502121817 | 60 | 111 | 0.0 | 0.0 | 0.00 | 0.06 | 0.00 | 69 | 1014.5 |
| 20260502121321 | 61 | 121 | 0.0 | 0.0 | 0.00 | 0.06 | 0.00 | 68 | 1014.6 |
| 20260502121036 | 61 | 191 | 0.0 | 0.0 | 0.00 | 0.06 | 0.00 | 68 | 1014.7 |
| 20260502120313 | 61 | 135 | 0.0 | 0.0 | 0.00 | 0.06 | 0.00 | 70 | 1014.7 |
| 20260502115813 | 61 | 193 | 0.0 | 0.0 | 0.00 | 0.06 | 0.00 | 70 | 1014.8 |
| 20260502115314 | 61 | 114 | 0.0 | 0.0 | 0.00 | 0.06 | 0.00 | 70 | 1014.9 |
| 20260502114814 | 60 | 161 | 0.0 | 0.0 | 0.00 | 0.06 | 0.00 | 72 | 1014.9 |
| 20260502114751 | 59 | 150 | 0.0 | 0.0 | 0.00 | 0.06 | 0.00 | 72 | 1015.0 |
| 20260502114039 | 59 | 57 | 0.0 | 0.0 | 0.00 | 0.06 | 0.00 | 74 | 1015.0 |
| 20260502113314 | 59 | 118 | 0.0 | 0.0 | 0.00 | 0.06 | 0.00 | 73 | 1015.0 |
| 20260502112813 | 59 | 139 | 0.0 | 0.0 | 0.00 | 0.06 | 0.00 | 74 | 1015.2 |
| 20260502112309 | 58 | 153 | 0.0 | 0.0 | 0.00 | 0.06 | 0.00 | 74 | 1015.1 |
| 20260502111810 | 58 | 110 | 0.0 | 0.0 | 0.00 | 0.06 | 0.00 | 74 | 1015.2 |
| 20260502111748 | 58 | 153 | 0.0 | 0.0 | 0.00 | 0.06 | 0.00 | 76 | 1015.2 |
| 20260502110810 | 58 | 68 | 0.0 | 0.0 | 0.00 | 0.06 | 0.00 | 77 | 1015.3 |
| 20260502110309 | 57 | 96 | 0.0 | 0.0 | 0.00 | 0.06 | 0.00 | 77 | 1015.3 |
| 20260502105809 | 57 | 186 | 0.0 | 0.0 | 0.00 | 0.06 | 0.00 | 79 | 1015.3 |
| 20260502105800 | 57 | 143 | 0.0 | 0.0 | 0.00 | 0.06 | 0.00 | 78 | 1015.3 |
| 20260502104809 | 57 | 141 | 0.0 | 0.0 | 0.00 | 0.06 | 0.00 | 78 | 1015.3 |
| 20260502104309 | 57 | 85 | 0.0 | 0.0 | 0.00 | 0.06 | 0.00 | 79 | 1015.4 |
| 20260502103806 | 57 | 161 | 0.0 | 0.0 | 0.00 | 0.06 | 0.00 | 79 | 1015.3 |
| 20260502103306 | 57 | 158 | 0.0 | 0.0 | 0.00 | 0.06 | 0.00 | 79 | 1015.3 |
| 20260502102806 | 57 | 102 | 0.0 | 0.0 | 0.00 | 0.06 | 0.00 | 79 | 1015.4 |
| 20260502102306 | 57 | 170 | 0.0 | 0.0 | 0.00 | 0.06 | 0.00 | 80 | 1015.5 |
| 20260502102029 | 57 | 137 | 0.0 | 0.0 | 0.00 | 0.06 | 0.00 | 80 | 1015.4 |
| 20260502101305 | 57 | 215 | 0.0 | 0.0 | 0.00 | 0.06 | 0.00 | 80 | 1015.7 |
| 20260502100806 | 56 | 191 | 0.0 | 0.0 | 0.00 | 0.06 | 0.00 | 82 | 1015.8 |
| 20260502100306 | 56 | 188 | 0.0 | 0.0 | 0.00 | 0.06 | 0.00 | 83 | 1015.8 |
| 20260502091303 | 55 | 113 | 0.0 | 0.0 | 0.00 | 0.06 | 0.00 | 85 | 1015.9 |
| 20260502091022 | 55 | 112 | 0.0 | 0.0 | 0.00 | 0.06 | 0.00 | 86 | 1015.9 |
| 20260502090302 | 55 | 141 | 0.0 | 0.0 | 0.00 | 0.06 | 0.00 | 85 | 1015.9 |
| 20260502090108 | 55 | 92 | 0.0 | 0.0 | 0.00 | 0.06 | 0.00 | 85 | 1015.9 |
| 20260502071527 | 48 | 139 | 0.0 | 0.0 | 0.00 | 0.06 | 0.00 | 97 | 1016.2 |
| 20260502070758 | 48 | 124 | 0.0 | 0.0 | 0.00 | 0.06 | 0.00 | 97 | 1016.2 |
| 20260502070257 | 47 | 146 | 0.0 | 0.0 | 0.00 | 0.06 | 0.00 | 97 | 1016.2 |
| 20260502065751 | 47 | 134 | 0.0 | 0.0 | 0.00 | 0.06 | 0.00 | 97 | 1016.1 |
| 20260502065248 | 47 | 108 | 0.0 | 0.0 | 0.00 | 0.06 | 0.00 | 97 | 1016.2 |
| 20260502064751 | 47 | 131 | 0.0 | 0.0 | 0.00 | 0.06 | 0.00 | 97 | 1016.2 |
| 20260502064250 | 47 | 132 | 0.0 | 0.0 | 0.00 | 0.06 | 0.00 | 97 | 1016.2 |
| 20260502063749 | 47 | 125 | 0.0 | 0.0 | 0.00 | 0.06 | 0.00 | 97 | 1016.2 |
| 20260502063516 | 47 | 143 | 0.0 | 0.0 | 0.00 | 0.06 | 0.00 | 97 | 1016.2 |
| 20260502062749 | 47 | 126 | 0.0 | 0.0 | 0.00 | 0.06 | 0.00 | 97 | 1016.1 |
| 20260502062515 | 47 | 163 | 0.0 | 0.0 | 0.00 | 0.06 | 0.00 | 97 | 1016.1 |
| 20260502062244 | 47 | 156 | 0.0 | 0.0 | 0.00 | 0.06 | 0.00 | 97 | 1016.1 |
| 20260502061251 | 46 | 139 | 0.0 | 0.0 | 0.00 | 0.06 | 0.00 | 97 | 1016.1 |
| 20260502060749 | 46 | 150 | 0.0 | 0.0 | 0.00 | 0.06 | 0.00 | 97 | 1016.1 |
| 20260502060249 | 46 | 141 | 0.0 | 0.0 | 0.00 | 0.06 | 0.00 | 97 | 1016.1 |
| 20260502055748 | 45 | 135 | 0.0 | 0.0 | 0.00 | 0.06 | 0.00 | 97 | 1016.1 |
| 20260502055249 | 45 | 159 | 0.0 | 0.0 | 0.00 | 0.06 | 0.00 | 97 | 1016.1 |
| 20260502054749 | 46 | 165 | 0.0 | 0.0 | 0.00 | 0.06 | 0.00 | 97 | 1016.1 |
| 20260502054249 | 45 | 186 | 0.0 | 0.0 | 0.00 | 0.06 | 0.00 | 97 | 1016.1 |
| 20260502053750 | 45 | 131 | 0.0 | 0.0 | 0.00 | 0.06 | 0.00 | 97 | 1016.1 |
| 20260502053251 | 45 | 146 | 0.0 | 0.0 | 0.00 | 0.06 | 0.00 | 97 | 1016.0 |
| 20260502052751 | 0 | 0.0 | 0.0 | 0.00 | 0.06 | 0.00 | 1016.1 | ||
| 20260502052249 | 0 | 0.0 | 0.0 | 0.00 | 0.06 | 0.00 | 1016.1 | ||
| 20260502051752 | 0 | 0.0 | 0.0 | 0.00 | 0.06 | 0.00 | 1016.1 | ||
| 20260502051157 | 0 | 0.0 | 0.0 | 0.00 | 0.06 | 0.00 | 1016.0 | ||
| 20260502050654 | 0 | 0.0 | 0.0 | 0.00 | 0.06 | 0.00 | 1016.0 | ||
| 20260502050151 | 0 | 0.0 | 0.0 | 0.00 | 0.06 | 0.00 | 1015.9 | ||
| 20260502045643 | 0 | 0.0 | 0.0 | 0.00 | 0.06 | 0.00 | 1016.0 | ||
| 20260502045535 | 0 | 0.0 | 0.0 | 0.00 | 0.06 | 0.00 | 1016.0 | ||
| 20260502044547 | 0 | 0.0 | 0.0 | 0.00 | 0.06 | 0.00 | 1016.0 | ||
| 20260502044037 | 0 | 0.0 | 0.0 | 0.00 | 0.06 | 0.00 | 1016.0 | ||
| 20260502043701 | 0 | 0.0 | 0.0 | 0.00 | 0.06 | 0.00 | 1016.0 | ||
| 20260502043544 | 0 | 0.0 | 0.0 | 0.00 | 0.06 | 0.00 | 1016.0 | ||
| 20260502042357 | 0 | 0.0 | 0.0 | 0.00 | 0.06 | 0.00 | 1016.0 | ||
| 20260502041855 | 0 | 0.0 | 0.0 | 0.00 | 0.06 | 0.00 | 1016.0 | ||
| 20260502041611 | 0 | 0.0 | 0.0 | 0.00 | 0.06 | 0.00 | 1016.1 | ||
| 20260502040752 | 0 | 0.0 | 0.0 | 0.00 | 0.06 | 0.00 | 1016.1 | ||
| 20260502040518 | 0 | 0.0 | 0.0 | 0.00 | 0.06 | 0.00 | 1016.1 | ||
| 20260502035701 | 0 | 0.0 | 0.0 | 0.00 | 0.06 | 0.00 | 1016.2 | ||
| 20260502035158 | 0 | 0.0 | 0.0 | 0.00 | 0.06 | 0.00 | 1016.2 | ||
| 20260502034659 | 0 | 0.0 | 0.0 | 0.00 | 0.06 | 0.00 | 1016.1 | ||
| 20260502034155 | 0 | 0.0 | 0.0 | 0.00 | 0.06 | 0.00 | 1016.2 | ||
| 20260502033653 | 0 | 0.0 | 0.0 | 0.00 | 0.06 | 0.00 | 1016.2 | ||
| 20260502033100 | 0 | 0.0 | 0.0 | 0.00 | 0.06 | 0.00 | 1016.2 | ||
| 20260502032538 | 0 | 0.0 | 0.0 | 0.00 | 0.06 | 0.00 | 1016.2 | ||
| 20260502031946 | 0 | 0.0 | 0.0 | 0.00 | 0.06 | 0.00 | 1016.2 | ||
| 20260502031346 | 47 | 0.0 | 0.0 | 0.00 | 0.06 | 0.00 | 96 | 1016.2 | |
| 20260502030759 | 47 | 226 | 0.0 | 0.0 | 0.00 | 0.06 | 0.00 | 96 | 1016.3 |
| 20260502030526 | 47 | 226 | 0.0 | 0.0 | 0.00 | 0.06 | 0.00 | 96 | 1016.3 |
| 20260502030108 | 47 | 226 | 0.0 | 0.0 | 0.00 | 0.06 | 0.00 | 97 | 1016.2 |
| 20260502025245 | 47 | 226 | 0.0 | 0.0 | 0.00 | 0.06 | 0.00 | 97 | 1016.2 |
| 20260502024740 | 48 | 226 | 0.0 | 0.0 | 0.00 | 0.06 | 0.00 | 97 | 1016.2 |
| 20260502024500 | 48 | 226 | 0.0 | 0.0 | 0.00 | 0.06 | 0.00 | 97 | 1016.2 |
| 20260502023954 | 48 | 226 | 0.0 | 0.0 | 0.00 | 0.06 | 0.00 | 97 | 1016.2 |
| 20260502023223 | 48 | 226 | 0.0 | 0.0 | 0.00 | 0.06 | 0.00 | 97 | 1016.2 |
| 20260502022936 | 48 | 227 | 0.0 | 0.0 | 0.00 | 0.06 | 0.00 | 97 | 1016.2 |
| 20260502022431 | 48 | 226 | 0.0 | 0.0 | 0.00 | 0.06 | 0.00 | 97 | 1016.3 |
| 20260502021705 | 48 | 226 | 0.0 | 0.0 | 0.00 | 0.06 | 0.00 | 97 | 1016.4 |
| 20260502021158 | 48 | 226 | 0.0 | 0.0 | 0.00 | 0.06 | 0.00 | 97 | 1016.5 |
| 20260502020652 | 49 | 226 | 0.0 | 0.0 | 0.00 | 0.06 | 0.00 | 97 | 1016.5 |
| 20260502020349 | 49 | 226 | 0.0 | 0.0 | 0.00 | 0.06 | 0.00 | 96 | 1016.6 |
| 20260502020233 | 49 | 226 | 0.0 | 0.0 | 0.00 | 0.06 | 0.00 | 97 | 1016.5 |
| 20260502015134 | 49 | 226 | 0.0 | 0.0 | 0.00 | 0.06 | 0.00 | 96 | 1016.7 |
| 20260502014628 | 49 | 226 | 0.0 | 0.0 | 0.00 | 0.06 | 0.00 | 96 | 1016.7 |
| 20260502014341 | 49 | 224 | 0.0 | 0.0 | 0.00 | 0.06 | 0.00 | 96 | 1016.7 |
| 20260502013615 | 49 | 229 | 0.0 | 0.0 | 0.00 | 0.06 | 0.00 | 96 | 1016.8 |
| 20260502013109 | 49 | 242 | 0.0 | 0.0 | 0.00 | 0.06 | 0.00 | 97 | 1016.8 |
| 20260502012604 | 49 | 236 | 0.0 | 0.0 | 0.00 | 0.06 | 0.00 | 96 | 1016.9 |
| 20260502012057 | 50 | 250 | 0.0 | 0.0 | 0.00 | 0.06 | 0.00 | 96 | 1016.9 |
| 20260502011552 | 50 | 260 | 0.0 | 0.0 | 0.00 | 0.06 | 0.00 | 96 | 1017.0 |
| 20260502011047 | 50 | 262 | 0.0 | 0.0 | 0.00 | 0.06 | 0.00 | 96 | 1017.0 |
| 20260502010542 | 50 | 248 | 0.0 | 0.0 | 0.00 | 0.06 | 0.00 | 96 | 1017.0 |
| 20260502010108 | 50 | 255 | 0.0 | 0.0 | 0.00 | 0.06 | 0.00 | 96 | 1017.1 |
| 20260502005528 | 50 | 255 | 0.0 | 0.0 | 0.00 | 0.06 | 0.00 | 96 | 1017.2 |
| 20260502005021 | 51 | 239 | 0.0 | 0.0 | 0.00 | 0.06 | 0.00 | 96 | 1017.2 |
| 20260502004516 | 51 | 259 | 0.0 | 0.0 | 0.00 | 0.06 | 0.00 | 96 | 1017.1 |
| 20260502004011 | 51 | 215 | 0.0 | 0.0 | 0.00 | 0.06 | 0.00 | 96 | 1017.2 |
| 20260502003505 | 52 | 203 | 0.0 | 0.0 | 0.00 | 0.06 | 0.00 | 97 | 1017.2 |
| 20260502002958 | 52 | 252 | 0.0 | 0.0 | 0.00 | 0.06 | 0.00 | 97 | 1017.2 |
| 20260502002450 | 51 | 245 | 0.0 | 0.0 | 0.00 | 0.06 | 0.00 | 97 | 1017.3 |
| 20260502001947 | 51 | 179 | 0.0 | 0.0 | 0.00 | 0.06 | 0.00 | 97 | 1017.3 |
| 20260502001439 | 51 | 179 | 0.0 | 0.0 | 0.00 | 0.06 | 0.00 | 96 | 1017.3 |
| 20260502000932 | 51 | 179 | 0.0 | 0.0 | 0.00 | 0.06 | 0.00 | 96 | 1017.3 |
| 20260502000431 | 51 | 174 | 0.0 | 0.0 | 0.00 | 0.06 | 0.00 | 96 | 1017.3 |
| 20260501235922 | 51 | 174 | 0.0 | 0.0 | 0.00 | 0.06 | 0.00 | 96 | 1017.4 |
| 20260501235416 | 51 | 174 | 0.0 | 0.0 | 0.00 | 0.06 | 0.00 | 96 | 1017.3 |
| 20260501234909 | 51 | 175 | 0.0 | 0.0 | 0.00 | 0.06 | 0.00 | 96 | 1017.3 |
| 20260501234403 | 52 | 174 | 0.0 | 0.0 | 0.00 | 0.06 | 0.00 | 96 | 1017.4 |
| 20260501233858 | 52 | 174 | 0.0 | 0.0 | 0.00 | 0.06 | 0.00 | 96 | 1017.4 |
| 20260501233612 | 52 | 175 | 0.0 | 0.0 | 0.00 | 0.06 | 0.00 | 96 | 1017.4 |
| 20260501232848 | 52 | 174 | 0.0 | 0.0 | 0.00 | 0.06 | 0.00 | 96 | 1017.5 |
| 20260501232610 | 52 | 174 | 0.0 | 0.0 | 0.00 | 0.06 | 0.00 | 96 | 1017.4 |
| 20260501231833 | 52 | 174 | 0.0 | 0.0 | 0.00 | 0.06 | 0.00 | 96 | 1017.4 |
| 20260501231328 | 52 | 155 | 0.0 | 0.0 | 0.00 | 0.06 | 0.00 | 96 | 1017.4 |
| 20260501230821 | 52 | 155 | 0.0 | 0.0 | 0.00 | 0.06 | 0.00 | 96 | 1017.5 |
| 20260501230804 | 52 | 155 | 0.0 | 0.0 | 0.00 | 0.06 | 0.00 | 96 | 1017.5 |
| 20260501225810 | 52 | 155 | 0.0 | 0.0 | 0.00 | 0.06 | 0.06 | 96 | 1017.5 |
| 20260501225306 | 52 | 155 | 0.0 | 0.0 | 0.00 | 0.06 | 0.06 | 96 | 1017.5 |
| 20260501224758 | 52 | 155 | 0.0 | 0.0 | 0.00 | 0.06 | 0.06 | 96 | 1017.5 |
| 20260501224253 | 52 | 155 | 0.0 | 0.0 | 0.00 | 0.06 | 0.06 | 96 | 1017.5 |
| 20260501223746 | 52 | 129 | 0.0 | 0.0 | 0.00 | 0.06 | 0.06 | 96 | 1017.5 |
| 20260501223240 | 52 | 129 | 0.0 | 0.0 | 0.00 | 0.06 | 0.06 | 95 | 1017.5 |
| 20260501222734 | 52 | 129 | 0.0 | 0.0 | 0.00 | 0.06 | 0.06 | 95 | 1017.6 |
| 20260501222227 | 52 | 129 | 0.0 | 0.0 | 0.00 | 0.06 | 0.06 | 95 | 1017.5 |